createdAt,value
2019-01-15T00:00:36.816Z,1011.39
2019-01-15T00:01:36.866Z,1011.37
2019-01-15T00:02:36.919Z,1011.40
2019-01-15T00:03:36.966Z,1011.39
2019-01-15T00:04:37.017Z,1011.43
2019-01-15T00:05:37.066Z,1011.42
2019-01-15T00:06:37.117Z,1011.40
2019-01-15T00:07:37.168Z,1011.42
2019-01-15T00:08:37.273Z,1011.43
2019-01-15T00:09:37.269Z,1011.45
2019-01-15T00:10:37.323Z,1011.47
2019-01-15T00:11:37.370Z,1011.45
2019-01-15T00:12:37.423Z,1011.46
2019-01-15T00:13:37.471Z,1011.45
2019-01-15T00:14:37.522Z,1011.40
2019-01-15T00:15:37.571Z,1011.42
2019-01-15T00:16:37.621Z,1011.44
2019-01-15T00:17:37.674Z,1011.41
2019-01-15T00:18:37.723Z,1011.35
2019-01-15T00:19:37.775Z,1011.37
2019-01-15T00:20:37.825Z,1011.36
2019-01-15T00:21:37.876Z,1011.34
2019-01-15T00:22:37.925Z,1011.32
2019-01-15T00:23:37.976Z,1011.33
2019-01-15T00:24:38.028Z,1011.31
2019-01-15T00:25:38.077Z,1011.31
2019-01-15T00:26:38.128Z,1011.34
2019-01-15T00:27:38.178Z,1011.35
2019-01-15T00:28:38.229Z,1011.34
2019-01-15T00:29:38.282Z,1011.34
2019-01-15T00:30:38.331Z,1011.34
2019-01-15T00:31:38.383Z,1011.35
2019-01-15T00:32:38.431Z,1011.34
2019-01-15T00:33:38.483Z,1011.38
2019-01-15T00:34:38.532Z,1011.36
2019-01-15T00:35:38.584Z,1011.40
2019-01-15T00:36:38.635Z,1011.34
2019-01-15T00:37:38.684Z,1011.39
2019-01-15T00:38:38.734Z,1011.45
2019-01-15T00:39:38.786Z,1011.42
2019-01-15T00:40:38.837Z,1011.46
2019-01-15T00:41:38.888Z,1011.45
2019-01-15T00:42:38.936Z,1011.44
2019-01-15T00:43:38.988Z,1011.44
2019-01-15T00:44:39.039Z,1011.40
2019-01-15T00:45:39.090Z,1011.41
2019-01-15T00:46:39.138Z,1011.40
2019-01-15T00:47:39.190Z,1011.40
2019-01-15T00:48:39.244Z,1011.44
2019-01-15T00:49:39.291Z,1011.46
2019-01-15T00:50:39.342Z,1011.53
2019-01-15T00:51:39.392Z,1011.56
2019-01-15T00:52:39.507Z,1011.58
2019-01-15T00:53:39.494Z,1011.60
2019-01-15T00:54:39.546Z,1011.54
2019-01-15T00:55:39.594Z,1011.62
2019-01-15T00:56:39.645Z,1011.58
2019-01-15T00:57:39.696Z,1011.64
2019-01-15T00:58:39.744Z,1011.63
2019-01-15T00:59:39.795Z,1011.63
2019-01-15T01:00:39.886Z,1011.62
2019-01-15T01:01:39.896Z,1011.60
2019-01-15T01:02:39.946Z,1011.55
2019-01-15T01:03:39.997Z,1011.59
2019-01-15T01:04:40.049Z,1011.59
2019-01-15T01:05:40.099Z,1011.60
2019-01-15T01:06:40.149Z,1011.62
2019-01-15T01:07:40.200Z,1011.56
2019-01-15T01:08:40.250Z,1011.56
2019-01-15T01:09:40.300Z,1011.61
2019-01-15T01:10:40.350Z,1011.59
2019-01-15T01:11:40.401Z,1011.60
2019-01-15T01:12:40.452Z,1011.61
2019-01-15T01:13:40.503Z,1011.63
2019-01-15T01:14:40.553Z,1011.64
2019-01-15T01:15:40.604Z,1011.62
2019-01-15T01:16:40.653Z,1011.63
2019-01-15T01:17:40.705Z,1011.70
2019-01-15T01:18:40.753Z,1011.69
2019-01-15T01:19:40.804Z,1011.67
2019-01-15T01:20:40.856Z,1011.71
2019-01-15T01:21:40.906Z,1011.68
2019-01-15T01:22:40.956Z,1011.71
2019-01-15T01:23:41.006Z,1011.70
2019-01-15T01:24:41.058Z,1011.67
2019-01-15T01:25:41.109Z,1011.72
2019-01-15T01:26:41.157Z,1011.72
2019-01-15T01:27:41.212Z,1011.71
2019-01-15T01:28:41.260Z,1011.68
2019-01-15T01:29:41.314Z,1011.63
2019-01-15T01:30:41.386Z,1011.68
2019-01-15T01:31:41.411Z,1011.69
2019-01-15T01:32:41.461Z,1011.73
2019-01-15T01:33:41.513Z,1011.70
2019-01-15T01:34:41.562Z,1011.70
2019-01-15T01:35:41.619Z,1011.73
2019-01-15T01:36:41.664Z,1011.73
2019-01-15T01:37:41.715Z,1011.73
2019-01-15T01:38:41.764Z,1011.76
2019-01-15T01:39:41.815Z,1011.74
2019-01-15T01:40:41.865Z,1011.69
2019-01-15T01:41:41.916Z,1011.69
2019-01-15T01:42:41.965Z,1011.69
2019-01-15T01:43:42.018Z,1011.68
2019-01-15T01:44:42.068Z,1011.67
2019-01-15T01:45:42.122Z,1011.68
2019-01-15T01:46:42.170Z,1011.67
2019-01-15T01:47:42.219Z,1011.65
2019-01-15T01:48:42.270Z,1011.69
2019-01-15T01:49:42.322Z,1011.66
2019-01-15T01:50:42.372Z,1011.63
2019-01-15T01:51:42.422Z,1011.65
2019-01-15T01:52:42.474Z,1011.63
2019-01-15T01:53:42.525Z,1011.62
2019-01-15T01:54:42.574Z,1011.62
2019-01-15T01:55:42.625Z,1011.63
2019-01-15T01:56:42.676Z,1011.58
2019-01-15T01:57:42.726Z,1011.59
2019-01-15T01:58:42.777Z,1011.67
2019-01-15T01:59:42.828Z,1011.62
2019-01-15T02:00:42.883Z,1011.65
2019-01-15T02:01:42.929Z,1011.72
2019-01-15T02:02:42.979Z,1011.72
2019-01-15T02:03:43.029Z,1011.76
2019-01-15T02:04:43.080Z,1011.78
2019-01-15T02:05:43.130Z,1011.78
2019-01-15T02:06:43.181Z,1011.77
2019-01-15T02:07:43.230Z,1011.76
2019-01-15T02:08:43.281Z,1011.83
2019-01-15T02:09:43.335Z,1011.84
2019-01-15T02:10:43.382Z,1011.83
2019-01-15T02:11:43.433Z,1011.82
2019-01-15T02:12:43.487Z,1011.83
2019-01-15T02:13:44.793Z,1011.78
2019-01-15T02:14:43.586Z,1011.85
2019-01-15T02:15:43.638Z,1011.84
2019-01-15T02:16:43.687Z,1011.81
2019-01-15T02:17:43.737Z,1011.83
2019-01-15T02:18:43.786Z,1011.90
2019-01-15T02:19:43.837Z,1011.88
2019-01-15T02:20:43.887Z,1011.85
2019-01-15T02:21:43.938Z,1011.87
2019-01-15T02:22:43.990Z,1011.86
2019-01-15T02:23:44.040Z,1011.88
2019-01-15T02:24:44.142Z,1011.89
2019-01-15T02:25:44.140Z,1011.84
2019-01-15T02:26:44.190Z,1011.93
2019-01-15T02:27:44.241Z,1011.88
2019-01-15T02:28:44.290Z,1011.88
2019-01-15T02:29:44.343Z,1011.94
2019-01-15T02:30:44.390Z,1011.91
2019-01-15T02:31:44.444Z,1011.94
2019-01-15T02:32:44.492Z,1011.95
2019-01-15T02:33:44.543Z,1011.94
2019-01-15T02:34:44.592Z,1011.95
2019-01-15T02:35:44.643Z,1011.94
2019-01-15T02:36:44.694Z,1011.95
2019-01-15T02:37:44.748Z,1012.00
2019-01-15T02:38:44.801Z,1011.99
2019-01-15T02:39:44.846Z,1012.02
2019-01-15T02:40:44.896Z,1011.99
2019-01-15T02:41:44.946Z,1011.95
2019-01-15T02:42:46.799Z,1011.94
2019-01-15T02:43:45.049Z,1011.93
2019-01-15T02:44:45.097Z,1011.94
2019-01-15T02:45:45.149Z,1011.87
2019-01-15T02:46:45.198Z,1011.84
2019-01-15T02:47:45.250Z,1011.81
2019-01-15T02:48:45.301Z,1011.79
2019-01-15T02:49:45.349Z,1011.81
2019-01-15T02:50:45.400Z,1011.81
2019-01-15T02:51:45.450Z,1011.78
2019-01-15T02:52:45.499Z,1011.81
2019-01-15T02:53:45.550Z,1011.82
2019-01-15T02:54:45.598Z,1011.85
2019-01-15T02:55:45.650Z,1011.86
2019-01-15T02:56:45.700Z,1011.91
2019-01-15T02:57:45.750Z,1011.86
2019-01-15T02:58:45.799Z,1011.80
2019-01-15T02:59:45.851Z,1011.78
2019-01-15T03:00:45.903Z,1011.79
2019-01-15T03:01:45.951Z,1011.80
2019-01-15T03:02:46.001Z,1011.74
2019-01-15T03:03:46.369Z,1011.72
2019-01-15T03:04:46.102Z,1011.76
2019-01-15T03:05:46.151Z,1011.71
2019-01-15T03:06:46.200Z,1011.77
2019-01-15T03:07:46.254Z,1011.79
2019-01-15T03:08:46.303Z,1011.81
2019-01-15T03:09:46.375Z,1011.83
2019-01-15T03:10:46.400Z,1011.80
2019-01-15T03:11:46.494Z,1011.80
2019-01-15T03:12:54.478Z,1011.80
2019-01-15T03:13:46.552Z,1011.82
2019-01-15T03:14:46.601Z,1011.83
2019-01-15T03:15:46.652Z,1011.78
2019-01-15T03:16:46.701Z,1011.74
2019-01-15T03:17:46.751Z,1011.69
2019-01-15T03:18:47.817Z,1011.73
2019-01-15T03:19:46.851Z,1011.71
2019-01-15T03:20:46.902Z,1011.69
2019-01-15T03:21:46.951Z,1011.71
2019-01-15T03:22:47.003Z,1011.70
2019-01-15T03:23:47.050Z,1011.68
2019-01-15T03:24:47.098Z,1011.66
2019-01-15T03:25:47.151Z,1011.65
2019-01-15T03:26:47.199Z,1011.66
2019-01-15T03:27:47.248Z,1011.65
2019-01-15T03:28:47.299Z,1011.60
2019-01-15T03:29:47.351Z,1011.61
2019-01-15T03:30:47.407Z,1011.58
2019-01-15T03:31:47.457Z,1011.54
2019-01-15T03:32:47.517Z,1011.51
2019-01-15T03:33:47.548Z,1011.48
2019-01-15T03:34:47.599Z,1011.52
2019-01-15T03:35:47.649Z,1011.58
2019-01-15T03:36:47.699Z,1011.62
2019-01-15T03:37:47.755Z,1011.62
2019-01-15T03:38:47.798Z,1011.61
2019-01-15T03:39:47.847Z,1011.52
2019-01-15T03:40:47.900Z,1011.50
2019-01-15T03:41:47.947Z,1011.54
2019-01-15T03:42:47.997Z,1011.51
2019-01-15T03:43:48.047Z,1011.55
2019-01-15T03:44:48.098Z,1011.55
2019-01-15T03:45:48.149Z,1011.51
2019-01-15T03:46:48.198Z,1011.56
2019-01-15T03:47:48.251Z,1011.62
2019-01-15T03:48:48.299Z,1011.69
2019-01-15T03:49:48.347Z,1011.74
2019-01-15T03:50:48.398Z,1011.74
2019-01-15T03:51:48.447Z,1011.69
2019-01-15T03:52:48.498Z,1011.69
2019-01-15T03:53:48.548Z,1011.69
2019-01-15T03:54:48.598Z,1011.67
2019-01-15T03:55:48.648Z,1011.65
2019-01-15T03:56:48.698Z,1011.63
2019-01-15T03:57:48.748Z,1011.60
2019-01-15T03:58:48.796Z,1011.52
2019-01-15T03:59:48.848Z,1011.57
2019-01-15T04:00:48.898Z,1011.54
2019-01-15T04:01:48.948Z,1011.52
2019-01-15T04:02:49.001Z,1011.48
2019-01-15T04:03:49.049Z,1011.52
2019-01-15T04:04:49.099Z,1011.56
2019-01-15T04:05:49.149Z,1011.50
2019-01-15T04:06:49.198Z,1011.53
2019-01-15T04:07:49.253Z,1011.47
2019-01-15T04:08:49.299Z,1011.46
2019-01-15T04:09:49.349Z,1011.49
2019-01-15T04:10:49.399Z,1011.47
2019-01-15T04:11:49.450Z,1011.44
2019-01-15T04:12:49.498Z,1011.42
2019-01-15T04:13:49.551Z,1011.38
2019-01-15T04:14:49.600Z,1011.36
2019-01-15T04:15:49.653Z,1011.34
2019-01-15T04:16:49.702Z,1011.36
2019-01-15T04:17:49.749Z,1011.31
2019-01-15T04:18:50.515Z,1011.33
2019-01-15T04:19:49.850Z,1011.30
2019-01-15T04:20:49.908Z,1011.28
2019-01-15T04:21:49.957Z,1011.29
2019-01-15T04:22:50.000Z,1011.24
2019-01-15T04:23:50.078Z,1011.27
2019-01-15T04:24:50.105Z,1011.31
2019-01-15T04:25:50.151Z,1011.26
2019-01-15T04:26:50.201Z,1011.28
2019-01-15T04:27:50.251Z,1011.25
2019-01-15T04:28:50.302Z,1011.19
2019-01-15T04:29:50.389Z,1011.21
2019-01-15T04:30:50.407Z,1011.21
2019-01-15T04:31:50.451Z,1011.22
2019-01-15T04:32:50.501Z,1011.22
2019-01-15T04:33:50.554Z,1011.22
2019-01-15T04:34:50.600Z,1011.22
2019-01-15T04:35:50.653Z,1011.23
2019-01-15T04:36:50.702Z,1011.23
2019-01-15T04:37:50.751Z,1011.25
2019-01-15T04:38:50.802Z,1011.30
2019-01-15T04:39:50.852Z,1011.27
2019-01-15T04:40:50.903Z,1011.28
2019-01-15T04:41:50.953Z,1011.28
2019-01-15T04:42:51.002Z,1011.29
2019-01-15T04:43:51.054Z,1011.32
2019-01-15T04:44:51.104Z,1011.31
2019-01-15T04:45:51.153Z,1011.27
2019-01-15T04:46:51.205Z,1011.27
2019-01-15T04:47:51.259Z,1011.30
2019-01-15T04:48:51.305Z,1011.26
2019-01-15T04:49:51.355Z,1011.25
2019-01-15T04:50:51.405Z,1011.24
2019-01-15T04:51:51.455Z,1011.24
2019-01-15T04:52:51.508Z,1011.25
2019-01-15T04:53:51.558Z,1011.28
2019-01-15T04:54:51.607Z,1011.28
2019-01-15T04:55:51.655Z,1011.31
2019-01-15T04:56:51.708Z,1011.32
2019-01-15T04:57:51.757Z,1011.33
2019-01-15T04:58:51.808Z,1011.33
2019-01-15T04:59:51.858Z,1011.32
2019-01-15T05:00:51.909Z,1011.26
2019-01-15T05:01:51.958Z,1011.27
2019-01-15T05:02:52.010Z,1011.24
2019-01-15T05:03:52.060Z,1011.23
2019-01-15T05:04:52.112Z,1011.22
2019-01-15T05:05:52.162Z,1011.21
2019-01-15T05:06:52.215Z,1011.23
2019-01-15T05:07:52.270Z,1011.18
2019-01-15T05:08:52.313Z,1011.19
2019-01-15T05:09:52.363Z,1011.18
2019-01-15T05:10:52.412Z,1011.20
2019-01-15T05:11:52.464Z,1011.18
2019-01-15T05:12:52.523Z,1011.19
2019-01-15T05:13:52.565Z,1011.21
2019-01-15T05:14:52.620Z,1011.22
2019-01-15T05:15:52.667Z,1011.22
2019-01-15T05:16:52.717Z,1011.23
2019-01-15T05:17:52.772Z,1011.22
2019-01-15T05:18:52.822Z,1011.23
2019-01-15T05:19:52.871Z,1011.21
2019-01-15T05:20:52.919Z,1011.20
2019-01-15T05:21:52.971Z,1011.22
2019-01-15T05:22:53.021Z,1011.20
2019-01-15T05:23:53.072Z,1011.22
2019-01-15T05:24:53.124Z,1011.19
2019-01-15T05:25:53.173Z,1011.23
2019-01-15T05:26:53.223Z,1011.21
2019-01-15T05:27:53.273Z,1011.23
2019-01-15T05:28:53.325Z,1011.22
2019-01-15T05:29:53.378Z,1011.26
2019-01-15T05:30:53.426Z,1011.21
2019-01-15T05:31:53.476Z,1011.22
2019-01-15T05:32:53.529Z,1011.20
2019-01-15T05:33:53.578Z,1011.19
2019-01-15T05:34:53.631Z,1011.21
2019-01-15T05:35:53.684Z,1011.24
2019-01-15T05:36:53.729Z,1011.26
2019-01-15T05:37:53.781Z,1011.22
2019-01-15T05:38:54.197Z,1011.19
2019-01-15T05:39:53.882Z,1011.18
2019-01-15T05:40:53.931Z,1011.19
2019-01-15T05:41:53.982Z,1011.17
2019-01-15T05:42:54.043Z,1011.13
2019-01-15T05:43:54.098Z,1011.09
2019-01-15T05:44:54.133Z,1011.04
2019-01-15T05:45:54.184Z,1011.01
2019-01-15T05:46:54.235Z,1010.99
2019-01-15T05:47:54.284Z,1010.97
2019-01-15T05:48:54.336Z,1010.99
2019-01-15T05:49:54.386Z,1011.01
2019-01-15T05:50:54.434Z,1010.95
2019-01-15T05:51:54.489Z,1010.99
2019-01-15T05:52:54.538Z,1011.01
2019-01-15T05:53:54.938Z,1011.02
2019-01-15T05:54:54.648Z,1011.04
2019-01-15T05:55:54.687Z,1011.06
2019-01-15T05:56:54.739Z,1011.03
2019-01-15T05:57:54.788Z,1011.03
2019-01-15T05:58:54.838Z,1010.99
2019-01-15T05:59:54.888Z,1010.96
2019-01-15T06:00:54.938Z,1010.96
2019-01-15T06:01:54.991Z,1010.95
2019-01-15T06:02:55.039Z,1010.98
2019-01-15T06:03:55.094Z,1010.89
2019-01-15T06:04:55.142Z,1010.84
2019-01-15T06:05:55.190Z,1010.82
2019-01-15T06:06:55.240Z,1010.86
2019-01-15T06:07:55.292Z,1010.79
2019-01-15T06:08:55.341Z,1010.87
2019-01-15T06:09:55.393Z,1010.90
2019-01-15T06:10:55.443Z,1010.91
2019-01-15T06:11:55.492Z,1010.89
2019-01-15T06:12:55.545Z,1010.92
2019-01-15T06:13:55.596Z,1010.98
2019-01-15T06:14:55.645Z,1010.95
2019-01-15T06:15:55.694Z,1010.96
2019-01-15T06:16:55.745Z,1010.95
2019-01-15T06:17:55.794Z,1010.97
2019-01-15T06:18:55.847Z,1010.94
2019-01-15T06:19:55.896Z,1010.90
2019-01-15T06:20:55.947Z,1010.86
2019-01-15T06:21:57.214Z,1010.82
2019-01-15T06:22:56.046Z,1010.81
2019-01-15T06:23:56.098Z,1010.83
2019-01-15T06:24:56.147Z,1010.80
2019-01-15T06:25:56.198Z,1010.80
2019-01-15T06:26:56.250Z,1010.80
2019-01-15T06:27:56.300Z,1010.71
2019-01-15T06:28:56.351Z,1010.66
2019-01-15T06:29:56.710Z,1010.66
2019-01-15T06:30:56.450Z,1010.66
2019-01-15T06:31:56.750Z,1010.71
2019-01-15T06:32:56.552Z,1010.82
2019-01-15T06:33:56.603Z,1010.88
2019-01-15T06:34:56.653Z,1010.95
2019-01-15T06:35:56.702Z,1011.02
2019-01-15T06:36:56.755Z,1011.02
2019-01-15T06:37:56.805Z,1010.97
2019-01-15T06:38:56.858Z,1010.97
2019-01-15T06:39:56.905Z,1011.01
2019-01-15T06:40:56.955Z,1011.01
2019-01-15T06:41:57.007Z,1011.03
2019-01-15T06:42:57.056Z,1010.99
2019-01-15T06:43:57.109Z,1010.97
2019-01-15T06:44:57.176Z,1010.92
2019-01-15T06:45:57.213Z,1010.92
2019-01-15T06:46:57.259Z,1010.92
2019-01-15T06:47:57.310Z,1010.97
2019-01-15T06:48:57.361Z,1011.02
2019-01-15T06:49:57.412Z,1010.97
2019-01-15T06:50:57.461Z,1011.00
2019-01-15T06:51:57.513Z,1010.96
2019-01-15T06:52:57.563Z,1011.00
2019-01-15T06:53:57.615Z,1010.99
2019-01-15T06:54:57.664Z,1011.00
2019-01-15T06:55:57.716Z,1011.03
2019-01-15T06:56:57.785Z,1011.03
2019-01-15T06:57:57.819Z,1011.03
2019-01-15T06:58:57.868Z,1011.00
2019-01-15T06:59:57.930Z,1011.02
2019-01-15T07:00:57.968Z,1011.04
2019-01-15T07:01:58.019Z,1011.06
2019-01-15T07:02:58.068Z,1011.06
2019-01-15T07:03:58.119Z,1011.05
2019-01-15T07:04:58.178Z,1011.00
2019-01-15T07:05:58.221Z,1011.00
2019-01-15T07:06:58.272Z,1011.00
2019-01-15T07:07:58.323Z,1011.02
2019-01-15T07:08:58.374Z,1011.04
2019-01-15T07:09:58.425Z,1010.98
2019-01-15T07:10:58.474Z,1010.99
2019-01-15T07:11:58.525Z,1010.99
2019-01-15T07:12:58.575Z,1010.99
2019-01-15T07:13:58.628Z,1010.93
2019-01-15T07:14:58.677Z,1010.90
2019-01-15T07:15:58.727Z,1010.83
2019-01-15T07:16:58.780Z,1010.87
2019-01-15T07:17:58.829Z,1010.87
2019-01-15T07:18:58.879Z,1010.87
2019-01-15T07:19:58.931Z,1010.87
2019-01-15T07:20:58.984Z,1010.84
2019-01-15T07:21:59.034Z,1010.80
2019-01-15T07:22:59.082Z,1010.83
2019-01-15T07:23:59.134Z,1010.84
2019-01-15T07:24:59.184Z,1010.86
2019-01-15T07:25:59.235Z,1010.89
2019-01-15T07:26:59.284Z,1010.90
2019-01-15T07:27:59.338Z,1010.93
2019-01-15T07:28:59.388Z,1010.93
2019-01-15T07:29:59.438Z,1010.94
2019-01-15T07:30:59.497Z,1010.91
2019-01-15T07:31:59.540Z,1010.88
2019-01-15T07:32:59.600Z,1010.94
2019-01-15T07:33:59.641Z,1010.93
2019-01-15T07:34:59.693Z,1010.93
2019-01-15T07:35:59.746Z,1010.91
2019-01-15T07:36:59.795Z,1010.95
2019-01-15T07:37:59.904Z,1010.96
2019-01-15T07:38:59.896Z,1010.94
2019-01-15T07:39:59.947Z,1010.91
2019-01-15T07:40:59.997Z,1010.90
2019-01-15T07:42:00.048Z,1010.90
2019-01-15T07:43:00.098Z,1010.87
2019-01-15T07:44:04.311Z,1010.87
2019-01-15T07:45:00.201Z,1010.90
2019-01-15T07:46:00.254Z,1010.89
2019-01-15T07:47:00.301Z,1010.91
2019-01-15T07:48:00.352Z,1010.92
2019-01-15T07:49:00.735Z,1010.98
2019-01-15T07:50:00.454Z,1010.96
2019-01-15T07:51:00.506Z,1010.98
2019-01-15T07:52:00.556Z,1011.02
2019-01-15T07:53:00.608Z,1010.99
2019-01-15T07:54:01.047Z,1011.02
2019-01-15T07:55:01.307Z,1011.01
2019-01-15T07:56:01.263Z,1011.05
2019-01-15T07:57:00.811Z,1011.11
2019-01-15T07:58:00.864Z,1011.12
2019-01-15T07:59:00.912Z,1011.14
2019-01-15T08:00:00.964Z,1011.15
2019-01-15T08:01:01.017Z,1011.18
2019-01-15T08:02:01.065Z,1011.19
2019-01-15T08:03:01.116Z,1011.13
2019-01-15T08:04:01.167Z,1011.17
2019-01-15T08:05:01.220Z,1011.17
2019-01-15T08:06:01.268Z,1011.14
2019-01-15T08:07:01.321Z,1011.11
2019-01-15T08:08:01.370Z,1011.10
2019-01-15T08:09:01.435Z,1011.10
2019-01-15T08:10:01.475Z,1011.11
2019-01-15T08:11:01.524Z,1011.10
2019-01-15T08:12:01.577Z,1011.08
2019-01-15T08:13:01.627Z,1011.13
2019-01-15T08:14:01.677Z,1011.16
2019-01-15T08:15:01.736Z,1011.17
2019-01-15T08:16:01.779Z,1011.16
2019-01-15T08:17:01.831Z,1011.16
2019-01-15T08:18:01.882Z,1011.17
2019-01-15T08:19:01.933Z,1011.14
2019-01-15T08:20:01.987Z,1011.14
2019-01-15T08:21:02.035Z,1011.13
2019-01-15T08:22:02.396Z,1011.17
2019-01-15T08:23:02.138Z,1011.20
2019-01-15T08:24:02.189Z,1011.18
2019-01-15T08:25:02.239Z,1011.19
2019-01-15T08:26:02.291Z,1011.22
2019-01-15T08:27:02.342Z,1011.22
2019-01-15T08:28:02.733Z,1011.21
2019-01-15T08:29:02.443Z,1011.22
2019-01-15T08:30:02.495Z,1011.25
2019-01-15T08:31:02.546Z,1011.22
2019-01-15T08:32:02.604Z,1011.23
2019-01-15T08:33:02.647Z,1011.27
2019-01-15T08:34:02.701Z,1011.28
2019-01-15T08:35:02.750Z,1011.31
2019-01-15T08:36:02.801Z,1011.31
2019-01-15T08:37:02.853Z,1011.34
2019-01-15T08:38:02.934Z,1011.35
2019-01-15T08:39:02.961Z,1011.38
2019-01-15T08:40:03.008Z,1011.37
2019-01-15T08:41:03.457Z,1011.40
2019-01-15T08:42:03.109Z,1011.45
2019-01-15T08:43:03.158Z,1011.42
2019-01-15T08:44:03.210Z,1011.42
2019-01-15T08:45:03.260Z,1011.38
2019-01-15T08:46:03.312Z,1011.38
2019-01-15T08:47:03.677Z,1011.36
2019-01-15T08:48:03.418Z,1011.40
2019-01-15T08:49:03.965Z,1011.35
2019-01-15T08:50:03.519Z,1011.32
2019-01-15T08:51:03.568Z,1011.30
2019-01-15T08:52:03.622Z,1011.28
2019-01-15T08:53:03.676Z,1011.24
2019-01-15T08:54:03.723Z,1011.18
2019-01-15T08:55:03.776Z,1011.15
2019-01-15T08:56:03.825Z,1011.19
2019-01-15T08:57:03.877Z,1011.22
2019-01-15T08:58:03.928Z,1011.25
2019-01-15T08:59:03.979Z,1011.28
2019-01-15T09:00:04.031Z,1011.33
2019-01-15T09:01:04.082Z,1011.28
2019-01-15T09:02:04.133Z,1011.25
2019-01-15T09:03:04.185Z,1011.28
2019-01-15T09:04:04.235Z,1011.30
2019-01-15T09:05:04.290Z,1011.27
2019-01-15T09:06:05.005Z,1011.32
2019-01-15T09:07:04.391Z,1011.28
2019-01-15T09:08:04.442Z,1011.24
2019-01-15T09:09:04.494Z,1011.24
2019-01-15T09:10:04.547Z,1011.27
2019-01-15T09:11:04.596Z,1011.22
2019-01-15T09:12:04.649Z,1011.21
2019-01-15T09:13:04.700Z,1011.21
2019-01-15T09:14:04.753Z,1011.21
2019-01-15T09:15:04.805Z,1011.14
2019-01-15T09:16:04.859Z,1011.14
2019-01-15T09:17:11.002Z,1011.10
2019-01-15T09:18:04.961Z,1011.14
2019-01-15T09:19:05.012Z,1011.14
2019-01-15T09:20:05.066Z,1011.15
2019-01-15T09:21:05.116Z,1011.16
2019-01-15T09:22:05.168Z,1011.15
2019-01-15T09:23:05.218Z,1011.19
2019-01-15T09:24:05.271Z,1011.23
2019-01-15T09:25:05.356Z,1011.20
2019-01-15T09:26:05.406Z,1011.20
2019-01-15T09:27:05.459Z,1011.17
2019-01-15T09:28:05.513Z,1011.21
2019-01-15T09:29:05.531Z,1011.24
2019-01-15T09:30:05.583Z,1011.20
2019-01-15T09:31:05.635Z,1011.18
2019-01-15T09:32:05.690Z,1011.20
2019-01-15T09:33:05.742Z,1011.19
2019-01-15T09:34:05.795Z,1011.22
2019-01-15T09:35:05.845Z,1011.24
2019-01-15T09:36:05.895Z,1011.25
2019-01-15T09:37:05.952Z,1011.23
2019-01-15T09:38:06.001Z,1011.23
2019-01-15T09:39:06.055Z,1011.23
2019-01-15T09:40:06.105Z,1011.20
2019-01-15T09:41:06.158Z,1011.20
2019-01-15T09:42:06.210Z,1011.22
2019-01-15T09:43:06.297Z,1011.22
2019-01-15T09:44:06.327Z,1011.23
2019-01-15T09:45:06.401Z,1011.19
2019-01-15T09:46:06.482Z,1011.19
2019-01-15T09:47:06.472Z,1011.21
2019-01-15T09:48:06.530Z,1011.23
2019-01-15T09:49:06.577Z,1011.23
2019-01-15T09:50:06.630Z,1011.20
2019-01-15T09:51:06.682Z,1011.24
2019-01-15T09:52:13.101Z,1011.20
2019-01-15T09:53:06.789Z,1011.20
2019-01-15T09:54:06.839Z,1011.23
2019-01-15T09:55:06.893Z,1011.24
2019-01-15T09:56:06.944Z,1011.17
2019-01-15T09:57:06.997Z,1011.17
2019-01-15T09:58:07.050Z,1011.10
2019-01-15T09:59:07.125Z,1011.14
2019-01-15T10:00:07.154Z,1011.11
2019-01-15T10:01:07.232Z,1011.09
2019-01-15T10:02:07.293Z,1011.14
2019-01-15T10:03:07.355Z,1011.12
2019-01-15T10:04:07.365Z,1011.08
2019-01-15T10:05:07.423Z,1011.06
2019-01-15T10:06:07.471Z,1011.04
2019-01-15T10:07:07.545Z,1011.02
2019-01-15T10:08:07.575Z,1011.00
2019-01-15T10:09:08.098Z,1011.00
2019-01-15T10:10:07.688Z,1011.00
2019-01-15T10:11:07.735Z,1011.00
2019-01-15T10:12:07.788Z,1010.99
2019-01-15T10:13:07.877Z,1010.90
2019-01-15T10:14:07.893Z,1010.96
2019-01-15T10:15:07.944Z,1010.97
2019-01-15T10:16:07.999Z,1010.93
2019-01-15T10:17:08.051Z,1010.93
2019-01-15T10:18:08.116Z,1010.87
2019-01-15T10:19:08.156Z,1010.74
2019-01-15T10:20:08.239Z,1010.77
2019-01-15T10:21:08.263Z,1010.78
2019-01-15T10:22:08.315Z,1010.80
2019-01-15T10:23:08.398Z,1010.84
2019-01-15T10:24:08.999Z,1010.78
2019-01-15T10:25:08.474Z,1010.79
2019-01-15T10:26:08.527Z,1010.74
2019-01-15T10:27:08.581Z,1010.78
2019-01-15T10:28:09.407Z,1010.74
2019-01-15T10:29:08.686Z,1010.72
2019-01-15T10:30:08.774Z,1010.73
2019-01-15T10:31:09.049Z,1010.71
2019-01-15T10:32:09.243Z,1010.67
2019-01-15T10:33:08.915Z,1010.66
2019-01-15T10:34:08.964Z,1010.66
2019-01-15T10:35:09.313Z,1010.65
2019-01-15T10:36:09.067Z,1010.68
2019-01-15T10:37:09.124Z,1010.69
2019-01-15T10:38:09.205Z,1010.65
2019-01-15T10:39:09.217Z,1010.62
2019-01-15T10:40:09.270Z,1010.65
2019-01-15T10:41:09.323Z,1010.67
2019-01-15T10:42:09.379Z,1010.63
2019-01-15T10:43:09.811Z,1010.61
2019-01-15T10:44:09.483Z,1010.63
2019-01-15T10:45:09.537Z,1010.62
2019-01-15T10:46:09.589Z,1010.59
2019-01-15T10:47:09.643Z,1010.59
2019-01-15T10:48:10.030Z,1010.57
2019-01-15T10:49:09.798Z,1010.59
2019-01-15T10:50:09.838Z,1010.61
2019-01-15T10:51:09.856Z,1010.57
2019-01-15T10:52:09.915Z,1010.61
2019-01-15T10:53:09.967Z,1010.54
2019-01-15T10:54:10.018Z,1010.57
2019-01-15T10:55:10.070Z,1010.56
2019-01-15T10:56:10.434Z,1010.57
2019-01-15T10:57:10.176Z,1010.60
2019-01-15T10:58:17.326Z,1010.57
2019-01-15T10:59:10.284Z,1010.53
2019-01-15T11:00:10.338Z,1010.54
2019-01-15T11:01:10.392Z,1010.55
2019-01-15T11:02:10.444Z,1010.51
2019-01-15T11:03:10.498Z,1010.49
2019-01-15T11:04:10.552Z,1010.49
2019-01-15T11:05:10.607Z,1010.49
2019-01-15T11:06:10.662Z,1010.49
2019-01-15T11:07:10.716Z,1010.40
2019-01-15T11:08:10.792Z,1010.37
2019-01-15T11:09:10.854Z,1010.42
2019-01-15T11:10:10.908Z,1010.41
2019-01-15T11:11:10.930Z,1010.41
2019-01-15T11:12:10.988Z,1010.44
2019-01-15T11:13:11.038Z,1010.37
2019-01-15T11:14:11.092Z,1010.34
2019-01-15T11:15:11.143Z,1010.33
2019-01-15T11:16:11.199Z,1010.32
2019-01-15T11:17:11.262Z,1010.35
2019-01-15T11:18:11.306Z,1010.32
2019-01-15T11:19:11.363Z,1010.36
2019-01-15T11:20:11.412Z,1010.33
2019-01-15T11:21:11.465Z,1010.32
2019-01-15T11:22:11.520Z,1010.36
2019-01-15T11:23:11.575Z,1010.34
2019-01-15T11:24:11.659Z,1010.33
2019-01-15T11:25:11.689Z,1010.38
2019-01-15T11:26:11.735Z,1010.39
2019-01-15T11:27:11.788Z,1010.38
2019-01-15T11:28:11.841Z,1010.42
2019-01-15T11:29:11.903Z,1010.30
2019-01-15T11:30:11.949Z,1010.30
2019-01-15T11:31:12.038Z,1010.31
2019-01-15T11:32:12.056Z,1010.36
2019-01-15T11:33:12.111Z,1010.32
2019-01-15T11:34:12.163Z,1010.32
2019-01-15T11:35:12.216Z,1010.32
2019-01-15T11:36:12.268Z,1010.29
2019-01-15T11:37:12.322Z,1010.32
2019-01-15T11:38:12.376Z,1010.29
2019-01-15T11:39:12.428Z,1010.28
2019-01-15T11:40:12.483Z,1010.28
2019-01-15T11:41:12.537Z,1010.25
2019-01-15T11:42:12.589Z,1010.24
2019-01-15T11:43:12.644Z,1010.26
2019-01-15T11:44:12.699Z,1010.27
2019-01-15T11:45:12.750Z,1010.29
2019-01-15T11:46:12.808Z,1010.22
2019-01-15T11:47:12.857Z,1010.27
2019-01-15T11:48:12.911Z,1010.20
2019-01-15T11:49:12.980Z,1010.19
2019-01-15T11:50:13.020Z,1010.23
2019-01-15T11:51:13.123Z,1010.17
2019-01-15T11:52:13.126Z,1010.20
2019-01-15T11:53:13.181Z,1010.16
2019-01-15T11:54:13.233Z,1010.15
2019-01-15T11:55:13.380Z,1010.11
2019-01-15T11:56:13.343Z,1010.07
2019-01-15T11:57:13.397Z,1010.01
2019-01-15T11:58:13.450Z,1010.05
2019-01-15T11:59:13.503Z,1010.00
2019-01-15T12:00:13.559Z,1009.95
2019-01-15T12:01:13.613Z,1009.88
2019-01-15T12:02:13.666Z,1009.92
2019-01-15T12:03:13.719Z,1009.93
2019-01-15T12:04:13.772Z,1009.87
2019-01-15T12:05:13.826Z,1009.89
2019-01-15T12:06:13.882Z,1009.89